Phoenix, AZ (85068)

11:13 AM MST on February 13, 2016 (GMT -0700)
Arroyo Rojo | | Change Station
CLOSE
Current Station
Personal Weather Station
Location: Phoenix, AZ
Elevation: 1476 ft
Nearby Weather Stations

Elev 1476 ft 33.68 °N, 112.06 °W | Updated 3 minutes ago

Clear
Clear
73.4 °F
Feels Like 76 °F
N
1.0
Wind Variable Wind from WSW
Gusts 5.0 mph

Today
High -- | Low -- °F
--% Chance of Precip.
Yesterday
High -- | Low -- °F
Precip. -- in
Pressure 30.04 in
Visibility 10.0 miles
Clouds Clear
Heat Index 76 °F
Dew Point 34 °F
Humidity 24%
Rainfall 0.00 in
Snow Depth Not available.
7:14 AM 6:10 PM
Waxing Crescent, 33% visible
METAR KDVT 131753Z COR VRB04KT 10SM CLR 22/M03 A3008 RMK AO2 SLP171 T02171028 10217 20094 56002
Pressure 30.04 in
Visibility 10.0 miles
Clouds Clear
Heat Index 76 °F
Dew Point 34 °F
Humidity 24%
Rainfall 0.00 in
Snow Depth Not available.
7:14 AM 6:10 PM
Waxing Crescent, 33% visible
METAR KDVT 131753Z COR VRB04KT 10SM CLR 22/M03 A3008 RMK AO2 SLP171 T02171028 10217 20094 56002

10-Day Weather Forecast

Almanac

Astronomy

Feb. 13, 2016 Rise Set
Actual Time
Civil Twilight
Nautical Twilight
Astronomical Twilight
Moon
Length of Visible Light
Length of Day
Tomorrow will be .
, % of the Moon is Illuminated

Today's Extremes

State Highs State Lows

Community

WunderPhotos

Upload Photos

1,892,632 photos uploaded!

WunderBlog® & News

Nearby

Air Quality

  Air Quality AQ Index Pollutant
Not available.

Snow Depth

Station Depth Elevation

Earthquake Activity

City Distance Mag. Time & Date
Minimum magnitude displayed is 2.5.

Coastal Water Temperatures

Place Temperature

Stations

Nearby Weather Stations

Station Location Temp. Windchill Dew Point Humidity Wind Precip. Elev Updated Type
                   

Watches & Warnings

There are currently no watches in effect.